createdAt,value
2019-05-26T00:00:54.976Z,7.73
2019-05-26T00:05:02.941Z,8.60
2019-05-26T00:09:11.693Z,8.17
2019-05-26T00:13:19.125Z,8.53
2019-05-26T00:17:27.151Z,7.83
2019-05-26T00:21:35.869Z,7.50
2019-05-26T00:25:43.255Z,8.30
2019-05-26T00:29:51.598Z,10.00
2019-05-26T00:33:59.250Z,9.10
2019-05-26T00:38:08.114Z,8.40
2019-05-26T00:42:16.813Z,7.20
2019-05-26T00:46:25.616Z,6.90
2019-05-26T00:50:34.186Z,7.00
2019-05-26T00:54:42.420Z,6.57
2019-05-26T00:58:49.800Z,6.93
2019-05-26T01:02:57.768Z,7.03
2019-05-26T01:07:05.441Z,7.37
2019-05-26T01:11:13.792Z,6.83
2019-05-26T01:15:21.785Z,6.93
2019-05-26T01:19:29.670Z,7.33
2019-05-26T01:23:37.541Z,7.57
2019-05-26T01:27:47.237Z,7.33
2019-05-26T01:31:54.602Z,6.87
2019-05-26T01:36:03.536Z,6.17
2019-05-26T01:40:11.313Z,6.37
2019-05-26T01:44:19.258Z,7.17
2019-05-26T01:48:27.588Z,7.30
2019-05-26T01:52:35.249Z,8.50
2019-05-26T01:56:43.616Z,7.80
2019-05-26T02:00:51.988Z,7.77
2019-05-26T02:05:00.491Z,8.70
2019-05-26T02:09:09.356Z,8.00
2019-05-26T02:13:16.850Z,8.27
2019-05-26T02:17:24.827Z,7.23
2019-05-26T02:21:33.171Z,7.00
2019-05-26T02:25:40.997Z,7.17
2019-05-26T02:29:49.338Z,7.23
2019-05-26T02:33:57.965Z,8.80
2019-05-26T02:38:05.355Z,8.50
2019-05-26T02:42:13.707Z,7.80
2019-05-26T02:46:21.523Z,8.40
2019-05-26T02:50:29.622Z,7.67
2019-05-26T02:54:37.963Z,6.27
2019-05-26T02:58:45.660Z,6.50
2019-05-26T03:02:54.296Z,6.57
2019-05-26T03:07:03.895Z,6.33
2019-05-26T03:11:13.202Z,7.63
2019-05-26T03:15:21.591Z,6.13
2019-05-26T03:19:29.773Z,5.93
2019-05-26T03:23:39.542Z,6.13
2019-05-26T03:27:47.916Z,6.30
2019-05-26T03:31:56.129Z,6.33
2019-05-26T03:36:04.086Z,6.07
2019-05-26T03:40:12.007Z,6.53
2019-05-26T03:44:19.981Z,7.20
2019-05-26T03:48:27.355Z,7.00
2019-05-26T03:52:35.694Z,6.97
2019-05-26T03:56:44.045Z,7.33
2019-05-26T04:00:51.563Z,6.97
2019-05-26T04:04:59.586Z,8.27
2019-05-26T04:09:08.809Z,7.97
2019-05-26T04:13:16.700Z,8.83
2019-05-26T04:17:24.568Z,7.97
2019-05-26T04:21:32.282Z,8.30
2019-05-26T04:25:40.644Z,5.23
2019-05-26T04:29:48.640Z,4.33
2019-05-26T04:33:56.129Z,4.50
2019-05-26T04:38:04.108Z,4.37
2019-05-26T04:42:11.594Z,3.90
2019-05-26T04:46:19.948Z,4.10
2019-05-26T04:50:28.285Z,4.30
2019-05-26T04:54:35.691Z,4.27
2019-05-26T04:58:46.564Z,4.50
2019-05-26T05:02:53.196Z,5.77
2019-05-26T05:07:01.546Z,3.80
2019-05-26T05:11:09.157Z,5.30
2019-05-26T05:15:16.645Z,4.93
2019-05-26T05:19:24.993Z,4.30
2019-05-26T05:23:32.476Z,3.50
2019-05-26T05:27:40.826Z,4.00
2019-05-26T05:31:49.177Z,3.60
2019-05-26T05:35:56.776Z,3.27
2019-05-26T05:40:05.619Z,3.57
2019-05-26T05:44:13.106Z,3.20
2019-05-26T05:48:21.461Z,3.47
2019-05-26T05:52:29.809Z,3.60
2019-05-26T05:56:37.197Z,3.90
2019-05-26T06:00:45.536Z,3.73
2019-05-26T06:04:54.017Z,3.67
2019-05-26T06:09:01.432Z,3.83
2019-05-26T06:13:09.320Z,3.47
2019-05-26T06:17:16.804Z,3.70
2019-05-26T06:21:25.402Z,3.73
2019-05-26T06:25:33.351Z,3.40
2019-05-26T06:29:55.970Z,4.17
2019-05-26T06:33:51.440Z,4.20
2019-05-26T06:37:58.837Z,4.40
2019-05-26T06:42:07.343Z,4.27
2019-05-26T06:46:15.344Z,3.60
2019-05-26T06:50:22.942Z,4.20
2019-05-26T06:54:30.835Z,3.77
2019-05-26T06:58:38.317Z,3.87
2019-05-26T07:02:46.297Z,4.33
2019-05-26T07:06:54.272Z,3.57
2019-05-26T07:11:01.755Z,4.00
2019-05-26T07:15:13.116Z,4.00
2019-05-26T07:19:21.197Z,4.03
2019-05-26T07:23:28.684Z,4.17
2019-05-26T07:27:37.112Z,3.80
2019-05-26T07:31:44.683Z,4.37
2019-05-26T07:35:53.097Z,4.10
2019-05-26T07:40:01.156Z,4.00
2019-05-26T07:44:08.632Z,4.03
2019-05-26T07:48:17.082Z,3.92
2019-05-26T07:52:25.061Z,4.45
2019-05-26T07:56:32.676Z,3.40
2019-05-26T08:00:41.099Z,3.47
2019-05-26T08:04:49.668Z,3.05
2019-05-26T08:08:58.113Z,3.30
2019-05-26T08:13:06.097Z,3.58
2019-05-26T08:17:14.527Z,2.98
2019-05-26T08:21:22.160Z,3.37
2019-05-26T08:25:30.231Z,3.22
2019-05-26T08:29:38.683Z,4.03
2019-05-26T08:33:47.160Z,3.33
2019-05-26T08:37:55.216Z,3.62
2019-05-26T08:42:03.791Z,3.60
2019-05-26T08:46:11.324Z,3.50
2019-05-26T08:50:20.252Z,3.27
2019-05-26T08:54:27.776Z,3.50
2019-05-26T08:58:35.345Z,3.58
2019-05-26T09:02:43.807Z,3.55
2019-05-26T09:06:51.270Z,3.33
2019-05-26T09:10:59.337Z,3.30
2019-05-26T09:15:08.177Z,4.05
2019-05-26T09:19:15.639Z,3.55
2019-05-26T09:23:24.602Z,3.40
2019-05-26T09:27:32.178Z,3.52
2019-05-26T09:31:40.611Z,3.98
2019-05-26T09:35:49.243Z,3.33
2019-05-26T09:39:57.140Z,3.47
2019-05-26T09:44:06.002Z,3.65
2019-05-26T09:48:14.440Z,4.05
2019-05-26T09:52:22.017Z,3.58
2019-05-26T09:56:30.140Z,3.50
2019-05-26T10:00:37.812Z,3.67
2019-05-26T10:04:46.249Z,3.72
2019-05-26T10:08:54.679Z,3.65
2019-05-26T10:13:02.247Z,3.62
2019-05-26T10:17:10.318Z,4.30
2019-05-26T10:21:17.905Z,4.17
2019-05-26T10:25:26.963Z,3.35
2019-05-26T10:29:34.737Z,3.90
2019-05-26T10:33:43.203Z,3.72
2019-05-26T10:37:53.864Z,3.62
2019-05-26T10:42:01.838Z,3.83
2019-05-26T10:46:09.899Z,3.55
2019-05-26T10:50:18.669Z,2.70
2019-05-26T10:54:26.727Z,3.45
2019-05-26T10:58:35.202Z,2.52
2019-05-26T11:02:43.661Z,3.05
2019-05-26T11:06:51.352Z,3.50
2019-05-26T11:10:59.778Z,3.25
2019-05-26T11:15:08.445Z,3.35
2019-05-26T11:19:16.873Z,3.58
2019-05-26T11:23:24.340Z,3.40
2019-05-26T11:27:32.780Z,2.92
2019-05-26T11:31:40.409Z,3.27
2019-05-26T11:35:48.834Z,3.98
2019-05-26T11:39:57.752Z,5.42
2019-05-26T11:44:17.629Z,4.60
2019-05-26T11:48:16.463Z,5.05
2019-05-26T11:52:24.550Z,4.45
2019-05-26T11:56:32.981Z,4.75
2019-05-26T12:00:41.610Z,4.05
2019-05-26T12:04:49.157Z,4.65
2019-05-26T12:08:57.610Z,4.28
2019-05-26T12:13:05.394Z,4.35
2019-05-26T12:17:13.426Z,4.35
2019-05-26T12:21:21.879Z,4.72
2019-05-26T12:25:33.338Z,4.45
2019-05-26T12:29:40.973Z,5.20
2019-05-26T12:33:49.036Z,4.90
2019-05-26T12:37:56.507Z,4.90
2019-05-26T12:42:05.523Z,4.87
2019-05-26T12:46:12.966Z,4.40
2019-05-26T12:50:21.136Z,4.05
2019-05-26T12:54:29.604Z,4.58
2019-05-26T12:58:38.022Z,4.15
2019-05-26T13:02:46.215Z,3.92
2019-05-26T13:06:54.722Z,5.50
2019-05-26T13:11:02.185Z,4.60
2019-05-26T13:15:11.390Z,6.30
2019-05-26T13:19:19.822Z,5.15
2019-05-26T13:23:28.293Z,4.20
2019-05-26T13:27:36.361Z,3.98
2019-05-26T13:31:45.910Z,4.55
2019-05-26T13:35:54.413Z,4.90
2019-05-26T13:40:03.500Z,4.45
2019-05-26T13:44:11.611Z,4.28
2019-05-26T13:48:19.718Z,4.40
2019-05-26T13:52:28.159Z,4.12
2019-05-26T13:56:35.879Z,4.75
2019-05-26T14:00:44.087Z,4.50
2019-05-26T14:04:52.261Z,4.23
2019-05-26T14:09:02.201Z,4.10
2019-05-26T14:13:10.723Z,4.12
2019-05-26T14:17:19.513Z,4.53
2019-05-26T14:21:27.074Z,4.12
2019-05-26T14:25:35.231Z,4.72
2019-05-26T14:29:43.209Z,4.43
2019-05-26T14:33:51.572Z,4.95
2019-05-26T14:38:00.320Z,4.42
2019-05-26T14:42:08.751Z,4.70
2019-05-26T14:46:18.178Z,4.40
2019-05-26T14:50:26.824Z,4.97
2019-05-26T14:54:35.082Z,4.90
2019-05-26T14:58:43.524Z,5.50
2019-05-26T15:02:51.977Z,5.12
2019-05-26T15:07:00.055Z,5.58
2019-05-26T15:11:08.474Z,5.45
2019-05-26T15:15:16.936Z,4.12
2019-05-26T15:19:24.758Z,4.97
2019-05-26T15:23:33.551Z,4.60
2019-05-26T15:27:41.294Z,4.60
2019-05-26T15:31:49.250Z,4.85
2019-05-26T15:35:57.693Z,4.80
2019-05-26T15:40:06.365Z,3.90
2019-05-26T15:44:14.418Z,5.12
2019-05-26T15:48:22.100Z,4.22
2019-05-26T15:52:30.553Z,5.03
2019-05-26T15:56:38.518Z,5.93
2019-05-26T16:00:47.140Z,4.87
2019-05-26T16:04:58.686Z,4.60
2019-05-26T16:09:06.365Z,5.00
2019-05-26T16:13:15.010Z,4.70
2019-05-26T16:17:23.430Z,5.20
2019-05-26T16:21:31.002Z,5.33
2019-05-26T16:25:39.363Z,5.70
2019-05-26T16:29:46.900Z,6.13
2019-05-26T16:33:55.002Z,5.77
2019-05-26T16:38:02.911Z,6.07
2019-05-26T16:42:10.565Z,6.60
2019-05-26T16:46:20.290Z,5.97
2019-05-26T16:50:29.112Z,6.80
2019-05-26T16:54:36.811Z,6.60
2019-05-26T16:58:47.478Z,6.30
2019-05-26T17:02:57.323Z,7.00
2019-05-26T17:07:06.884Z,6.27
2019-05-26T17:11:14.493Z,6.30
2019-05-26T17:15:22.650Z,6.40
2019-05-26T17:19:30.675Z,6.43
2019-05-26T17:23:38.448Z,5.77
2019-05-26T17:27:47.198Z,5.90
2019-05-26T17:31:54.988Z,6.30
2019-05-26T17:36:03.224Z,6.33
2019-05-26T17:40:11.080Z,6.00
2019-05-26T17:44:19.398Z,7.50
2019-05-26T17:48:27.151Z,8.70
2019-05-26T17:52:34.944Z,6.93
2019-05-26T17:56:43.588Z,7.43
2019-05-26T18:00:52.399Z,7.50
2019-05-26T18:05:00.034Z,7.70
2019-05-26T18:09:08.782Z,7.07
2019-05-26T18:13:16.434Z,7.17
2019-05-26T18:17:24.643Z,6.67
2019-05-26T18:21:33.492Z,7.70
2019-05-26T18:25:41.230Z,7.13
2019-05-26T18:29:49.807Z,5.30
2019-05-26T18:33:57.543Z,5.50
2019-05-26T18:38:06.357Z,6.00
2019-05-26T18:42:14.101Z,6.70
2019-05-26T18:46:22.221Z,5.80
2019-05-26T18:50:29.809Z,6.60
2019-05-26T18:54:38.430Z,5.67
2019-05-26T18:58:47.166Z,5.93
2019-05-26T19:02:56.073Z,6.33
2019-05-26T19:07:04.820Z,5.93
2019-05-26T19:11:12.922Z,5.67
2019-05-26T19:15:21.713Z,5.43
2019-05-26T19:19:30.371Z,5.23
2019-05-26T19:23:39.022Z,5.73
2019-05-26T19:27:46.629Z,5.33
2019-05-26T19:31:54.309Z,4.90
2019-05-26T19:36:02.451Z,5.80
2019-05-26T19:40:11.294Z,5.27
2019-05-26T19:44:19.027Z,5.67
2019-05-26T19:48:36.492Z,4.90
2019-05-26T19:52:37.751Z,5.43
2019-05-26T19:56:46.315Z,5.40
2019-05-26T20:00:54.008Z,5.17
2019-05-26T20:05:02.658Z,5.43
2019-05-26T20:09:12.646Z,4.87
2019-05-26T20:13:20.529Z,5.93
2019-05-26T20:17:29.204Z,5.30
2019-05-26T20:21:36.865Z,5.40
2019-05-26T20:25:45.392Z,5.00
2019-05-26T20:29:53.028Z,4.87
2019-05-26T20:34:00.680Z,5.00
2019-05-26T20:38:10.817Z,5.23
2019-05-26T20:42:17.973Z,5.03
2019-05-26T20:46:26.639Z,5.07
2019-05-26T20:50:34.830Z,5.10
2019-05-26T20:54:42.460Z,5.50
2019-05-26T20:58:50.529Z,5.17
2019-05-26T21:02:59.037Z,5.03
2019-05-26T21:07:07.915Z,4.57
2019-05-26T21:11:16.037Z,4.97
2019-05-26T21:15:23.659Z,6.17
2019-05-26T21:19:32.234Z,4.70
2019-05-26T21:23:40.051Z,4.90
2019-05-26T21:27:48.636Z,4.80
2019-05-26T21:31:56.699Z,4.53
2019-05-26T21:36:04.426Z,5.13
2019-05-26T21:40:13.459Z,4.17
2019-05-26T21:44:21.101Z,4.10
2019-05-26T21:48:30.568Z,4.73
2019-05-26T21:52:39.144Z,4.17
2019-05-26T21:56:46.783Z,4.60
2019-05-26T22:00:55.377Z,4.10
2019-05-26T22:05:03.709Z,4.17
2019-05-26T22:09:11.068Z,4.10
2019-05-26T22:13:19.434Z,4.30
2019-05-26T22:17:27.992Z,4.63
2019-05-26T22:21:36.649Z,3.90
2019-05-26T22:25:45.287Z,3.97
2019-05-26T22:29:54.478Z,3.80
2019-05-26T22:34:03.107Z,4.03
2019-05-26T22:38:11.470Z,3.57
2019-05-26T22:42:20.192Z,3.60
2019-05-26T22:46:28.382Z,3.90
2019-05-26T22:50:36.952Z,4.00
2019-05-26T22:54:45.173Z,3.40
2019-05-26T22:58:53.798Z,3.30
2019-05-26T23:03:02.088Z,3.50
2019-05-26T23:07:10.813Z,3.50
2019-05-26T23:11:19.616Z,3.90
2019-05-26T23:15:28.424Z,3.97
2019-05-26T23:19:37.090Z,3.67
2019-05-26T23:23:45.372Z,3.53
2019-05-26T23:27:55.342Z,3.27
2019-05-26T23:32:04.051Z,3.20
2019-05-26T23:36:12.731Z,3.37
2019-05-26T23:40:21.384Z,3.20
2019-05-26T23:44:29.172Z,3.00
2019-05-26T23:48:37.763Z,2.90
2019-05-26T23:52:45.947Z,3.30
2019-05-26T23:56:54.679Z,3.40
